createdAt,value
2019-01-24T00:00:53.455Z,32.53
2019-01-24T00:03:25.427Z,32.44
2019-01-24T00:05:57.880Z,32.58
2019-01-24T00:08:29.754Z,32.24
2019-01-24T00:11:01.849Z,31.84
2019-01-24T00:13:33.774Z,32.26
2019-01-24T00:16:06.315Z,31.93
2019-01-24T00:18:38.440Z,32.33
2019-01-24T00:21:10.037Z,32.80
2019-01-24T00:23:41.755Z,31.42
2019-01-24T00:26:12.475Z,32.85
2019-01-24T00:28:44.803Z,32.78
2019-01-24T00:31:15.690Z,32.94
2019-01-24T00:33:46.659Z,32.48
2019-01-24T00:36:19.341Z,33.36
2019-01-24T00:38:51.786Z,33.36
2019-01-24T00:41:23.897Z,32.55
2019-01-24T00:43:55.743Z,32.46
2019-01-24T00:46:28.319Z,32.55
2019-01-24T00:49:00.490Z,33.04
2019-01-24T00:51:32.786Z,32.00
2019-01-24T00:54:04.847Z,32.35
2019-01-24T00:56:36.833Z,32.64
2019-01-24T00:59:08.831Z,32.32
2019-01-24T01:01:40.470Z,32.12
2019-01-24T01:04:12.266Z,32.34
2019-01-24T01:06:43.870Z,32.51
2019-01-24T01:09:15.761Z,32.14
2019-01-24T01:11:46.747Z,32.88
2019-01-24T01:14:18.438Z,33.56
2019-01-24T01:16:50.057Z,32.93
2019-01-24T01:19:21.778Z,31.77
2019-01-24T01:21:53.074Z,32.19
2019-01-24T01:24:24.785Z,32.88
2019-01-24T01:26:55.487Z,32.38
2019-01-24T01:29:27.309Z,33.39
2019-01-24T01:31:59.418Z,33.64
2019-01-24T01:34:36.152Z,33.33
2019-01-24T01:37:04.794Z,33.59
2019-01-24T01:39:36.357Z,33.77
2019-01-24T01:42:08.313Z,33.04
2019-01-24T01:44:39.862Z,33.00
2019-01-24T01:47:11.649Z,33.00
2019-01-24T01:49:43.375Z,34.00
2019-01-24T01:52:15.027Z,34.00
2019-01-24T01:54:46.757Z,33.14
2019-01-24T01:57:17.535Z,33.13
2019-01-24T01:59:49.300Z,33.45
2019-01-24T02:02:21.308Z,33.55
2019-01-24T02:04:52.798Z,33.08
2019-01-24T02:07:24.396Z,32.80
2019-01-24T02:09:56.069Z,33.82
2019-01-24T02:12:28.326Z,33.43
2019-01-24T02:14:59.920Z,34.04
2019-01-24T02:17:31.414Z,32.61
2019-01-24T02:20:03.061Z,33.59
2019-01-24T02:24:37.314Z,32.49
2019-01-24T02:27:08.888Z,32.49
2019-01-24T02:29:40.425Z,33.44
2019-01-24T02:32:12.352Z,33.01
2019-01-24T02:34:49.659Z,33.19
2019-01-24T02:37:17.649Z,32.81
2019-01-24T02:39:48.462Z,32.05
2019-01-24T02:42:20.619Z,31.43
2019-01-24T02:44:52.507Z,32.39
2019-01-24T02:47:24.314Z,32.62
2019-01-24T02:49:56.489Z,32.48
2019-01-24T02:52:28.317Z,31.99
2019-01-24T02:54:59.874Z,32.41
2019-01-24T02:57:31.411Z,32.25
2019-01-24T03:00:03.075Z,33.33
2019-01-24T03:02:34.766Z,32.13
2019-01-24T03:05:06.421Z,33.00
2019-01-24T03:07:38.497Z,32.34
2019-01-24T03:10:12.785Z,32.33
2019-01-24T03:12:43.488Z,32.97
2019-01-24T03:15:18.322Z,33.28
2019-01-24T03:17:50.030Z,31.83
2019-01-24T03:20:21.790Z,33.11
2019-01-24T03:22:53.045Z,32.93
2019-01-24T03:25:25.120Z,32.79
2019-01-24T03:27:56.769Z,33.05
2019-01-24T03:30:27.793Z,33.26
2019-01-24T03:32:59.647Z,32.67
2019-01-24T03:35:31.354Z,32.52
2019-01-24T03:38:02.884Z,32.52
2019-01-24T03:40:34.771Z,33.45
2019-01-24T03:43:05.519Z,32.89
2019-01-24T03:45:37.587Z,32.94
2019-01-24T03:48:09.308Z,33.36
2019-01-24T03:50:40.854Z,33.36
2019-01-24T03:53:12.641Z,33.89
2019-01-24T03:55:44.348Z,33.41
2019-01-24T03:58:19.795Z,33.41
2019-01-24T04:00:51.731Z,32.76
2019-01-24T04:03:23.394Z,32.83
2019-01-24T04:05:55.337Z,32.19
2019-01-24T04:08:27.074Z,32.55
2019-01-24T04:10:58.794Z,33.21
2019-01-24T04:13:29.490Z,33.20
2019-01-24T04:16:01.318Z,33.00
2019-01-24T04:21:14.269Z,32.62
2019-01-24T04:23:45.832Z,33.26
2019-01-24T04:26:17.620Z,32.06
2019-01-24T04:28:50.318Z,33.78
2019-01-24T04:31:21.867Z,33.78
2019-01-24T04:33:53.698Z,33.44
2019-01-24T04:36:25.373Z,32.12
2019-01-24T04:38:57.084Z,32.41
2019-01-24T04:41:28.767Z,33.00
2019-01-24T04:43:59.506Z,32.83
2019-01-24T04:46:31.594Z,33.05
2019-01-24T04:49:03.324Z,33.82
2019-01-24T04:51:34.896Z,33.82
2019-01-24T04:54:06.421Z,32.89
2019-01-24T04:56:38.070Z,32.56
2019-01-24T17:27:36.383Z,29.03
2019-01-24T17:30:11.954Z,31.11
2019-01-24T17:32:43.888Z,31.44
2019-01-24T17:35:15.486Z,30.70
2019-01-24T17:37:47.022Z,31.34
2019-01-24T17:40:28.906Z,30.93
2019-01-24T17:43:00.770Z,31.77
2019-01-24T17:45:32.124Z,31.09
2019-01-24T17:48:04.011Z,31.69
2019-01-24T17:50:35.778Z,30.57
2019-01-24T17:53:07.791Z,27.71
2019-01-24T17:55:42.119Z,25.93
2019-01-24T17:58:14.758Z,26.31
2019-01-24T18:00:49.925Z,24.83
2019-01-24T18:03:21.720Z,25.21
2019-01-24T18:05:52.488Z,24.31
2019-01-24T18:08:30.983Z,24.30
2019-01-24T18:10:57.756Z,23.99
2019-01-24T18:13:28.487Z,23.83
2019-01-24T18:16:00.357Z,23.80
2019-01-24T18:18:32.911Z,23.86
2019-01-24T18:21:04.786Z,24.41
2019-01-24T18:23:36.354Z,24.01
2019-01-24T18:26:08.310Z,24.55
2019-01-24T18:28:39.965Z,24.68
2019-01-24T18:31:11.807Z,25.86
2019-01-24T18:33:43.643Z,25.81
2019-01-24T18:36:15.376Z,26.42
2019-01-24T18:38:47.435Z,26.42
2019-01-24T18:41:19.033Z,27.14
2019-01-24T18:43:50.802Z,26.74
2019-01-24T18:46:22.421Z,26.52
2019-01-24T18:48:54.429Z,26.92
2019-01-24T18:51:26.439Z,28.36
2019-01-24T18:53:58.467Z,29.97
2019-01-24T18:56:30.396Z,30.71
2019-01-24T18:59:02.896Z,30.47
2019-01-24T19:01:34.864Z,29.59
2019-01-24T19:04:07.304Z,29.87
2019-01-24T19:06:40.404Z,30.86
2019-01-24T19:09:12.625Z,30.79
2019-01-24T19:11:44.606Z,29.08
2019-01-24T19:14:16.412Z,29.55
2019-01-24T19:16:48.297Z,29.55
2019-01-24T19:19:20.703Z,27.68
2019-01-24T19:21:51.481Z,27.32
2019-01-24T19:24:23.802Z,27.18
2019-01-24T19:26:55.617Z,26.67
2019-01-24T19:29:27.727Z,27.67
2019-01-24T19:31:59.377Z,27.67
2019-01-24T19:34:31.060Z,27.87
2019-01-24T19:37:02.883Z,27.74
2019-01-24T19:39:34.905Z,29.01
2019-01-24T19:42:06.782Z,32.48
2019-01-24T19:44:38.583Z,31.85
2019-01-24T19:47:10.456Z,30.26
2019-01-24T19:49:42.775Z,30.26
2019-01-24T19:52:13.717Z,29.27
2019-01-24T19:54:45.829Z,30.17
2019-01-24T19:57:17.770Z,29.29
2019-01-24T19:59:48.450Z,28.56
2019-01-24T20:02:20.300Z,27.85
2019-01-24T20:04:52.841Z,27.70
2019-01-24T20:07:24.621Z,27.17
2019-01-24T20:09:56.356Z,27.82
2019-01-24T20:12:28.305Z,27.82
2019-01-24T20:14:59.891Z,27.98
2019-01-24T20:17:31.782Z,31.78
2019-01-24T20:20:03.814Z,30.61
2019-01-24T20:22:36.014Z,29.77
2019-01-24T20:25:11.302Z,30.48
2019-01-24T20:27:43.315Z,30.86
2019-01-24T20:30:33.305Z,30.12
2019-01-24T20:33:05.306Z,29.78
2019-01-24T20:35:57.776Z,31.00
2019-01-24T20:38:28.638Z,31.58
2019-01-24T20:41:00.324Z,32.46
2019-01-24T20:43:35.438Z,32.46
2019-01-24T20:46:05.745Z,31.04
2019-01-24T20:48:36.472Z,31.89
2019-01-24T20:51:08.736Z,31.69
2019-01-24T20:53:39.492Z,30.56
2019-01-24T20:56:11.304Z,30.81
2019-01-24T20:58:43.002Z,32.03
2019-01-24T21:01:15.306Z,32.16
2019-01-24T21:03:55.442Z,31.62
2019-01-24T21:06:34.392Z,32.57
2019-01-24T21:09:18.331Z,31.58
2019-01-24T21:11:50.937Z,31.53
2019-01-24T21:14:25.289Z,32.95
2019-01-24T21:17:02.330Z,32.73
2019-01-24T21:19:34.370Z,32.62
2019-01-24T21:22:07.298Z,33.54
2019-01-24T21:24:39.898Z,33.02
2019-01-24T21:27:12.522Z,33.57
2019-01-24T21:29:44.378Z,32.68
2019-01-24T21:32:16.299Z,32.84
2019-01-24T21:34:47.853Z,33.61
2019-01-24T21:37:19.695Z,33.61
2019-01-24T21:39:52.651Z,33.35
2019-01-24T21:42:24.406Z,33.06
2019-01-24T21:44:56.057Z,33.06
2019-01-24T21:47:28.058Z,33.28
2019-01-24T21:49:59.778Z,33.68
2019-01-24T21:52:30.493Z,33.27
2019-01-24T21:55:02.255Z,32.32
2019-01-24T21:57:34.048Z,32.96
2019-01-24T22:00:06.650Z,33.23
2019-01-24T22:02:38.402Z,32.85
2019-01-24T22:05:11.060Z,32.85
2019-01-24T22:07:43.398Z,32.74
2019-01-24T22:10:19.960Z,33.80
2019-01-24T22:12:52.570Z,33.49
2019-01-24T22:15:29.146Z,32.94
2019-01-24T22:18:01.891Z,32.94
2019-01-24T22:20:33.903Z,33.26
2019-01-24T22:23:06.845Z,32.80
2019-01-24T22:25:39.504Z,33.25
2019-01-24T22:28:11.422Z,33.54
2019-01-24T22:30:52.890Z,33.54
2019-01-24T22:33:24.894Z,33.73
2019-01-24T22:35:56.766Z,33.40
2019-01-24T22:38:27.679Z,33.36
2019-01-24T22:40:59.561Z,33.67
2019-01-24T22:43:31.725Z,33.75
2019-01-24T22:46:02.460Z,33.75
2019-01-24T22:48:34.479Z,33.67
2019-01-24T22:51:06.305Z,33.47
2019-01-24T22:53:38.050Z,33.78
2019-01-24T22:56:09.722Z,33.57
2019-01-24T22:58:40.499Z,34.16
2019-01-24T23:01:39.729Z,33.79
2019-01-24T23:04:17.255Z,33.78
2019-01-24T23:06:49.481Z,33.90
2019-01-24T23:09:21.313Z,34.68
2019-01-24T23:11:53.593Z,34.51
2019-01-24T23:14:34.727Z,33.91
2019-01-24T23:17:10.038Z,33.91
2019-01-24T23:19:41.815Z,34.19
2019-01-24T23:22:16.754Z,34.69
2019-01-24T23:24:48.467Z,34.27
2019-01-24T23:27:20.323Z,34.33
2019-01-24T23:29:51.857Z,34.05
2019-01-24T23:32:23.438Z,34.23
2019-01-24T23:34:55.675Z,34.01
2019-01-24T23:37:28.316Z,34.32
2019-01-24T23:39:59.927Z,34.59
2019-01-24T23:42:31.828Z,33.92
2019-01-24T23:45:03.621Z,34.13
2019-01-24T23:47:35.772Z,34.18
2019-01-24T23:50:07.493Z,34.18
2019-01-24T23:52:39.275Z,34.54
2019-01-24T23:55:11.056Z,34.54
2019-01-24T23:57:42.847Z,34.31
